Takeley, United Kingdom
Current Conditions -  °F | °C
As of 2:20 PM on Saturday 22 Nov 2014 (Local Time) from EGSS Reporting Station
Light Rain Light Rain  
Wind Chill: 55°   Ceiling: 300
Heat Index: 55°   Visibility: 2.5mi
Dew Point: 55°   Wind: 6mph
Humidity: 100%   Direction: 180°S
Pressure: 29.91"   Gusts: NA
Location:  51.87°N, 0.27°E
Report Text: EGSS 221420Z 18005KT 4000 -RADZ OVC003 13/13 Q1013
Loading
Personal Weather Stations






























Interactive Weather Map New forecast layout! Learn more

10-Day Weather Forecast

Advertisements
Track Severe Weather on mobile